createdAt,value
2019-01-25T00:02:48.501Z,92.70
2019-01-25T00:07:52.354Z,93.00
2019-01-25T00:12:56.049Z,93.20
2019-01-25T00:18:00.168Z,92.90
2019-01-25T00:23:03.926Z,92.80
2019-01-25T00:28:07.600Z,92.60
2019-01-25T00:33:11.548Z,92.70
2019-01-25T00:38:15.571Z,93.30
2019-01-25T00:43:19.249Z,93.50
2019-01-25T00:48:22.929Z,93.60
2019-01-25T00:53:26.748Z,93.60
2019-01-25T00:58:31.571Z,93.30
2019-01-25T01:03:35.399Z,93.20
2019-01-25T01:08:39.188Z,93.40
2019-01-25T01:13:42.883Z,93.30
2019-01-25T01:18:46.559Z,93.60
2019-01-25T01:23:50.554Z,93.50
2019-01-25T01:28:54.691Z,94.30
2019-01-25T01:33:58.363Z,93.80
2019-01-25T01:39:02.188Z,93.60
2019-01-25T01:44:06.179Z,93.80
2019-01-25T01:49:09.898Z,93.80
2019-01-25T01:54:14.051Z,93.60
2019-01-25T01:59:17.727Z,93.40
2019-01-25T02:04:21.839Z,94.10
2019-01-25T02:09:25.493Z,94.20
2019-01-25T02:14:29.164Z,94.30
2019-01-25T02:19:33.206Z,93.60
2019-01-25T02:24:36.869Z,93.70
2019-01-25T02:29:40.830Z,93.80
2019-01-25T02:34:44.809Z,93.80
2019-01-25T02:39:48.525Z,93.90
2019-01-25T02:44:52.318Z,93.50
2019-01-25T02:49:56.024Z,93.70
2019-01-25T02:54:59.991Z,94.00
2019-01-25T03:00:07.175Z,94.00
2019-01-25T03:05:11.344Z,94.30
2019-01-25T03:10:15.938Z,94.10
2019-01-25T03:15:21.839Z,93.90
2019-01-25T03:20:25.913Z,93.90
2019-01-25T03:25:29.740Z,94.10
2019-01-25T03:30:33.493Z,94.50
2019-01-25T03:35:37.162Z,94.40
2019-01-25T03:40:40.851Z,94.30
2019-01-25T03:45:44.620Z,93.90
2019-01-25T03:50:48.595Z,94.20
2019-01-25T03:55:52.565Z,94.10
2019-01-25T04:00:56.567Z,94.00
2019-01-25T04:06:00.228Z,94.40
2019-01-25T04:11:04.320Z,94.10
2019-01-25T04:16:08.090Z,94.30
2019-01-25T04:21:11.755Z,94.50
2019-01-25T04:26:15.443Z,94.50
2019-01-25T04:31:19.125Z,94.60
2019-01-25T04:36:22.783Z,94.90
2019-01-25T04:41:26.480Z,95.20
2019-01-25T04:46:30.827Z,94.90
2019-01-25T04:51:34.626Z,95.00
2019-01-25T04:56:39.178Z,94.70
2019-01-25T05:01:43.406Z,94.60
2019-01-25T05:06:47.081Z,94.20
2019-01-25T05:11:50.792Z,94.40
2019-01-25T05:16:54.509Z,94.40
2019-01-25T05:21:58.207Z,94.30
2019-01-25T05:27:01.908Z,94.30
2019-01-25T05:32:06.538Z,94.40
2019-01-25T05:37:12.411Z,94.30
2019-01-25T05:42:16.132Z,94.50
2019-01-25T05:47:19.854Z,94.60
2019-01-25T05:52:23.581Z,94.40
2019-01-25T05:57:27.578Z,94.40
2019-01-25T06:02:31.292Z,94.60
2019-01-25T06:07:34.987Z,94.60
2019-01-25T06:12:38.673Z,94.80
2019-01-25T06:17:42.336Z,94.80
2019-01-25T06:22:46.369Z,94.60
2019-01-25T06:27:50.055Z,94.80
2019-01-25T06:32:53.742Z,95.20
2019-01-25T06:37:57.465Z,95.10
2019-01-25T06:43:01.572Z,94.80
2019-01-25T06:48:05.619Z,94.70
2019-01-25T06:53:09.304Z,99.80
2019-01-25T06:58:31.057Z,94.90
2019-01-25T07:03:34.756Z,95.10
2019-01-25T07:08:38.770Z,94.90
2019-01-25T07:13:42.535Z,94.80
2019-01-25T07:18:46.209Z,95.40
2019-01-25T07:23:49.887Z,95.10
2019-01-25T07:28:53.913Z,94.90
2019-01-25T07:33:58.191Z,95.00
2019-01-25T07:39:08.441Z,95.20
2019-01-25T07:44:12.121Z,95.00
2019-01-25T07:49:15.901Z,95.00
2019-01-25T07:54:19.776Z,94.80
2019-01-25T07:59:23.785Z,94.70
2019-01-25T08:04:27.717Z,94.90
2019-01-25T08:09:31.694Z,94.50
2019-01-25T08:14:35.382Z,94.30
2019-01-25T08:19:39.205Z,94.50
2019-01-25T08:24:43.042Z,94.10
2019-01-25T08:29:46.750Z,94.10
2019-01-25T08:34:50.541Z,94.50
2019-01-25T08:39:54.278Z,93.70
2019-01-25T08:44:59.697Z,93.10
2019-01-25T08:50:04.818Z,92.90
2019-01-25T08:55:08.899Z,92.80
2019-01-25T09:00:18.546Z,91.80
2019-01-25T09:05:22.343Z,92.60
2019-01-25T09:10:26.079Z,92.10
2019-01-25T09:15:30.102Z,91.30
2019-01-25T09:20:33.808Z,91.30
2019-01-25T09:25:37.779Z,90.60
2019-01-25T09:30:41.805Z,90.30
2019-01-25T09:35:45.977Z,89.90
2019-01-25T09:40:50.079Z,88.70
2019-01-25T09:45:53.849Z,89.50
2019-01-25T09:50:57.535Z,85.40
2019-01-25T09:56:01.529Z,84.90
2019-01-25T10:01:08.519Z,84.40
2019-01-25T10:06:12.208Z,83.30
2019-01-25T10:11:16.190Z,82.50
2019-01-25T10:16:19.947Z,83.70
2019-01-25T10:21:23.611Z,78.10
2019-01-25T10:26:27.326Z,74.30
2019-01-25T10:31:31.017Z,73.40
2019-01-25T10:36:35.276Z,70.30
2019-01-25T10:41:39.605Z,67.10
2019-01-25T10:46:43.569Z,60.00
2019-01-25T10:51:47.279Z,56.00
2019-01-25T10:56:51.348Z,58.10
2019-01-25T11:01:55.308Z,57.50
2019-01-25T11:06:59.101Z,57.60
2019-01-25T11:12:02.915Z,59.10
2019-01-25T11:17:06.768Z,54.30
2019-01-25T11:22:11.032Z,54.00
2019-01-25T11:27:15.063Z,54.70
2019-01-25T11:32:19.032Z,58.00
2019-01-25T11:37:22.733Z,58.40
2019-01-25T11:42:26.673Z,61.00
2019-01-25T11:47:30.349Z,60.80
2019-01-25T11:52:34.055Z,60.70
2019-01-25T11:57:37.715Z,60.60
2019-01-25T12:02:41.525Z,63.00
2019-01-25T12:07:45.500Z,67.10
2019-01-25T12:12:49.163Z,67.10
2019-01-25T12:17:52.833Z,67.50
2019-01-25T12:22:56.595Z,64.60
2019-01-25T12:28:05.164Z,62.20
2019-01-25T12:33:06.581Z,63.80
2019-01-25T12:38:10.378Z,64.20
2019-01-25T12:43:14.052Z,64.90
2019-01-25T12:48:17.728Z,79.70
2019-01-25T12:53:23.029Z,65.90
2019-01-25T12:58:26.683Z,65.40
2019-01-25T13:03:30.346Z,64.00
2019-01-25T13:08:36.057Z,62.80
2019-01-25T13:13:39.791Z,65.30
2019-01-25T13:18:43.505Z,64.40
2019-01-25T13:23:47.399Z,66.30
2019-01-25T13:28:51.435Z,68.10
2019-01-25T13:33:55.201Z,67.90
2019-01-25T13:38:59.135Z,70.70
2019-01-25T13:44:02.811Z,71.50
2019-01-25T13:49:06.881Z,72.20
2019-01-25T13:54:10.700Z,72.80
2019-01-25T13:59:14.512Z,73.20
2019-01-25T14:04:18.240Z,73.60
2019-01-25T14:09:21.957Z,73.10
2019-01-25T14:14:25.638Z,74.50
2019-01-25T14:19:29.353Z,73.90
2019-01-25T14:24:33.062Z,72.90
2019-01-25T14:29:36.801Z,72.90
2019-01-25T14:34:40.513Z,73.20
2019-01-25T14:39:44.224Z,73.80
2019-01-25T14:44:47.959Z,74.90
2019-01-25T14:49:51.625Z,73.40
2019-01-25T14:54:56.662Z,73.40
2019-01-25T15:00:00.512Z,75.00
2019-01-25T15:05:07.247Z,78.40
2019-01-25T15:10:13.965Z,77.40
2019-01-25T15:15:17.730Z,78.20
2019-01-25T15:20:23.490Z,78.90
2019-01-25T15:25:27.195Z,80.30
2019-01-25T15:30:32.257Z,79.70
2019-01-25T15:35:35.974Z,82.40
2019-01-25T15:40:39.763Z,81.30
2019-01-25T15:45:43.457Z,81.80
2019-01-25T15:50:48.195Z,82.50
2019-01-25T15:55:51.952Z,81.70
2019-01-25T16:00:55.625Z,83.40
2019-01-25T16:05:59.316Z,80.60
2019-01-25T16:11:03.017Z,81.80
2019-01-25T16:16:06.962Z,80.80
2019-01-25T16:21:11.038Z,80.50
2019-01-25T16:26:15.032Z,81.00
2019-01-25T16:31:18.723Z,81.10
2019-01-25T16:36:22.401Z,80.70
2019-01-25T16:41:26.082Z,81.20
2019-01-25T16:46:29.747Z,80.30
2019-01-25T16:51:33.448Z,80.10
2019-01-25T16:56:37.149Z,81.70
2019-01-25T17:01:41.670Z,80.90
2019-01-25T17:06:45.480Z,80.90
2019-01-25T17:11:49.452Z,81.30
2019-01-25T17:16:53.165Z,82.30
2019-01-25T17:21:56.824Z,82.90
2019-01-25T17:27:00.598Z,82.10
2019-01-25T17:32:04.338Z,82.50
2019-01-25T17:37:08.568Z,83.00
2019-01-25T17:42:12.313Z,83.10
2019-01-25T17:47:16.075Z,83.00
2019-01-25T17:52:19.847Z,84.80
2019-01-25T17:57:23.523Z,83.00
2019-01-25T18:02:27.291Z,82.30
2019-01-25T18:07:31.005Z,83.70
2019-01-25T18:12:34.752Z,92.80
2019-01-25T18:17:38.431Z,83.20
2019-01-25T18:22:42.140Z,80.70
2019-01-25T18:27:49.577Z,84.90
2019-01-25T18:32:53.231Z,89.50
2019-01-25T18:37:56.999Z,93.70
2019-01-25T18:43:01.463Z,82.50
2019-01-25T18:48:05.594Z,90.50
2019-01-25T18:53:09.345Z,73.80
2019-01-25T18:58:13.325Z,92.10
2019-01-25T19:03:17.283Z,83.60
2019-01-25T19:08:21.105Z,89.60
2019-01-25T19:13:24.796Z,74.40
2019-01-25T19:18:28.860Z,75.20
2019-01-25T19:23:32.661Z,75.00
2019-01-25T19:28:36.424Z,75.00
2019-01-25T19:33:40.119Z,90.90
2019-01-25T19:38:43.867Z,76.40
2019-01-25T19:43:47.992Z,75.30
2019-01-25T19:48:52.086Z,76.80
2019-01-25T19:53:55.873Z,78.00
2019-01-25T19:58:59.626Z,77.70
2019-01-25T20:04:03.517Z,79.00
2019-01-25T20:09:09.854Z,78.80
2019-01-25T20:14:13.614Z,79.10
2019-01-25T20:19:17.356Z,79.60
2019-01-25T20:24:21.076Z,79.80
2019-01-25T20:29:25.157Z,79.70
2019-01-25T20:34:29.005Z,79.40
2019-01-25T20:39:32.736Z,79.60
2019-01-25T20:44:36.663Z,79.80
2019-01-25T20:49:40.689Z,79.70
2019-01-25T20:54:44.710Z,80.50
2019-01-25T20:59:48.401Z,79.80
2019-01-25T21:04:52.369Z,80.00
2019-01-25T21:09:56.265Z,79.20
2019-01-25T21:14:59.956Z,79.80
2019-01-25T21:20:04.767Z,78.60
2019-01-25T21:25:08.618Z,78.60
2019-01-25T21:30:15.725Z,78.60
2019-01-25T21:35:19.540Z,78.80
2019-01-25T21:40:25.501Z,78.90
2019-01-25T21:45:31.036Z,79.00
2019-01-25T21:50:36.791Z,78.50
2019-01-25T21:55:40.566Z,78.60
2019-01-25T22:00:44.789Z,78.40
2019-01-25T22:05:48.593Z,78.50
2019-01-25T22:10:52.284Z,79.10
2019-01-25T22:15:56.051Z,79.10
2019-01-25T22:21:00.024Z,79.70
2019-01-25T22:26:03.887Z,79.10
2019-01-25T22:31:07.597Z,79.30
2019-01-25T22:36:11.319Z,79.00
2019-01-25T22:41:14.992Z,79.30
2019-01-25T22:46:18.687Z,79.90
2019-01-25T22:51:22.425Z,80.30
2019-01-25T22:56:26.112Z,80.20
2019-01-25T23:01:32.552Z,81.00
2019-01-25T23:07:08.989Z,80.80
2019-01-25T23:12:12.700Z,82.00
2019-01-25T23:17:16.417Z,81.00
2019-01-25T23:22:20.096Z,80.80
2019-01-25T23:27:23.849Z,80.80
2019-01-25T23:32:27.580Z,81.40
2019-01-25T23:37:31.316Z,81.40
2019-01-25T23:42:35.407Z,82.00
2019-01-25T23:47:39.146Z,82.20
2019-01-25T23:52:42.884Z,82.30
2019-01-25T23:57:46.599Z,82.00
